Time;durP1;ratioP1;P1;durP2;ratioP2;P2;SDS_P1;SDS_P2;PMS_P1;PMS_P2;Temp;Humidity;BMP_temperature;BMP_pressure;BME280_temperature;BME280_humidity;BME280_pressure;Samples;Min_cycle;Max_cycle;Signal;HPM_P1;HPM_P2
2021/11/02 00:01:43;;;;;;;24.00;14.57;;;;;;;;;;4869029;29;32252;-65
2021/11/02 00:04:12;;;;;;;24.25;16.52;;;;;;;;;;4868923;29;32347;-68
2021/11/02 00:06:39;;;;;;;24.98;15.73;;;;;;;;;;4868229;29;32435;-65
2021/11/02 00:09:07;;;;;;;22.23;14.80;;;;;;;;;;4868834;29;32301;-66
2021/11/02 00:11:36;;;;;;;24.42;16.70;;;;;;;;;;4868758;29;32395;-68
2021/11/02 00:14:09;;;;;;;20.75;14.27;;;;;;;;;;4868612;29;34171;-67
2021/11/02 00:16:37;;;;;;;24.85;15.98;;;;;;;;;;4868606;29;32356;-66
2021/11/02 00:19:06;;;;;;;24.83;15.20;;;;;;;;;;4868647;29;32411;-68
2021/11/02 00:21:36;;;;;;;25.27;14.20;;;;;;;;;;4868572;29;32396;-65
2021/11/02 00:24:15;;;;;;;21.88;15.27;;;;;;;;;;4868574;29;32351;-68
2021/11/02 00:26:45;;;;;;;22.65;14.45;;;;;;;;;;4868519;29;32190;-65
2021/11/02 00:29:12;;;;;;;27.63;17.90;;;;;;;;;;4868511;29;32411;-66
2021/11/02 00:31:40;;;;;;;25.92;15.13;;;;;;;;;;4868406;29;32197;-66
2021/11/02 00:34:06;;;;;;;23.35;15.27;;;;;;;;;;4868573;29;32213;-65
2021/11/02 00:36:33;;;;;;;22.42;15.07;;;;;;;;;;4868387;29;35273;-65
2021/11/02 00:38:59;;;;;;;25.52;17.73;;;;;;;;;;4868300;29;32428;-67
2021/11/02 00:41:26;;;;;;;27.35;18.55;;;;;;;;;;4868464;29;32392;-64
2021/11/02 00:43:55;;;;;;;23.60;15.75;;;;;;;;;;4868367;29;32285;-65
2021/11/02 00:46:33;;;;;;;25.70;18.55;;;;;;;;;;4868602;29;32372;-64
2021/11/02 00:49:02;;;;;;;26.17;18.08;;;;;;;;;;4868536;29;32398;-65
2021/11/02 00:51:30;;;;;;;25.75;15.57;;;;;;;;;;4868557;29;32233;-68
2021/11/02 00:53:56;;;;;;;24.65;16.67;;;;;;;;;;4868640;29;32409;-66
2021/11/02 00:56:23;;;;;;;25.33;16.63;;;;;;;;;;4868523;29;32375;-66
2021/11/02 00:58:50;;;;;;;26.92;18.02;;;;;;;;;;4868243;29;34229;-66
2021/11/02 01:01:18;;;;;;;23.90;16.02;;;;;;;;;;4868450;29;32139;-65
2021/11/02 01:03:45;;;;;;;27.33;16.10;;;;;;;;;;4867414;29;32386;-65
2021/11/02 01:06:12;;;;;;;23.95;16.08;;;;;;;;;;4867910;29;32536;-64
2021/11/02 01:08:38;;;;;;;27.80;18.70;;;;;;;;;;4868030;29;35912;-68
2021/11/02 01:11:05;;;;;;;26.55;15.85;;;;;;;;;;4871446;29;32406;-65
2021/11/02 01:13:32;;;;;;;25.88;18.20;;;;;;;;;;4886651;29;32130;-64
2021/11/02 01:16:01;;;;;;;23.23;15.68;;;;;;;;;;4887226;29;32264;-66
2021/11/02 01:18:29;;;;;;;24.65;16.05;;;;;;;;;;4887263;29;32390;-65
2021/11/02 01:20:56;;;;;;;26.98;16.50;;;;;;;;;;4886867;29;35604;-67
2021/11/02 01:23:23;;;;;;;26.27;18.48;;;;;;;;;;4886764;29;32269;-65
2021/11/02 01:25:50;;;;;;;26.63;15.57;;;;;;;;;;4886713;29;32256;-65
2021/11/02 01:28:17;;;;;;;28.17;16.23;;;;;;;;;;4886803;29;31854;-65
2021/11/02 01:30:44;;;;;;;28.83;19.55;;;;;;;;;;4886519;29;35495;-67
2021/11/02 01:33:10;;;;;;;30.70;19.83;;;;;;;;;;4869227;29;32407;-66
2021/11/02 01:35:38;;;;;;;26.20;16.00;;;;;;;;;;4886601;29;32403;-65
2021/11/02 01:38:07;;;;;;;27.33;17.00;;;;;;;;;;4886599;29;32295;-65
2021/11/02 01:40:34;;;;;;;27.50;16.65;;;;;;;;;;4886822;29;32135;-65
2021/11/02 01:43:01;;;;;;;29.08;19.73;;;;;;;;;;4886512;29;34693;-66
2021/11/02 01:45:28;;;;;;;27.23;18.98;;;;;;;;;;4886638;29;32464;-67
2021/11/02 01:47:56;;;;;;;26.20;17.20;;;;;;;;;;4886517;29;32315;-68
2021/11/02 01:50:23;;;;;;;30.08;16.80;;;;;;;;;;4886490;29;32372;-65
2021/11/02 01:52:51;;;;;;;31.55;16.83;;;;;;;;;;4869055;29;34345;-64
2021/11/02 01:55:19;;;;;;;31.65;18.98;;;;;;;;;;4886225;29;32416;-66
2021/11/02 01:57:46;;;;;;;29.65;17.77;;;;;;;;;;4886232;29;32397;-65
2021/11/02 02:00:17;;;;;;;36.28;18.73;;;;;;;;;;4883808;29;32373;-65
2021/11/02 02:03:05;;;;;;;32.00;18.58;;;;;;;;;;4869192;29;32321;-66
2021/11/02 02:05:47;;;;;;;29.88;17.75;;;;;;;;;;4883827;29;35282;-63
2021/11/02 02:08:34;;;;;;;29.38;16.67;;;;;;;;;;4883839;29;32606;-65
2021/11/02 02:11:10;;;;;;;31.88;17.98;;;;;;;;;;4878332;29;32279;-64
2021/11/02 02:13:48;;;;;;;33.83;17.95;;;;;;;;;;4867323;29;32223;-68
2021/11/02 02:16:20;;;;;;;32.33;17.23;;;;;;;;;;4880170;29;35219;-66
2021/11/02 02:18:51;;;;;;;31.55;18.15;;;;;;;;;;4888758;29;32462;-65
2021/11/02 02:21:39;;;;;;;32.78;19.08;;;;;;;;;;4878583;29;32256;-66
2021/11/02 02:24:22;;;;;;;36.22;19.55;;;;;;;;;;4869898;29;32385;-68
2021/11/02 02:27:06;;;;;;;36.45;20.05;;;;;;;;;;4876140;29;32397;-65
2021/11/02 02:29:40;;;;;;;48.60;26.40;;;;;;;;;;4888537;29;35551;-65
2021/11/02 02:32:10;;;;;;;48.35;24.88;;;;;;;;;;4882646;29;32535;-65
2021/11/02 02:34:37;;;;;;;44.00;23.80;;;;;;;;;;4888465;29;32532;-63
2021/11/02 02:37:06;;;;;;;45.80;23.80;;;;;;;;;;4888595;29;32138;-64
2021/11/02 02:39:55;;;;;;;43.30;23.70;;;;;;;;;;4888455;29;34234;-66
2021/11/02 02:42:22;;;;;;;46.78;24.80;;;;;;;;;;4886166;29;32384;-66
2021/11/02 02:44:50;;;;;;;;;;;;;;;;;;4889127;29;32414;-66
2021/11/02 02:47:18;;;;;;;45.63;24.27;;;;;;;;;;4870786;29;32377;-65
2021/11/02 02:49:46;;;;;;;52.92;24.27;;;;;;;;;;4888602;29;32150;-68
2021/11/02 02:52:14;;;;;;;53.50;26.23;;;;;;;;;;4876070;29;35315;-68
2021/11/02 02:54:42;;;;;;;46.47;25.95;;;;;;;;;;4873765;29;32571;-67
2021/11/02 02:57:11;;;;;;;51.08;24.80;;;;;;;;;;4879161;29;32414;-67
2021/11/02 02:59:39;;;;;;;45.13;24.05;;;;;;;;;;4864756;29;32358;-65
2021/11/02 03:02:12;;;;;;;44.33;23.27;;;;;;;;;;4883964;29;35359;-65
2021/11/02 03:04:40;;;;;;;51.45;26.40;;;;;;;;;;4868643;29;32439;-65
2021/11/02 03:07:07;;;;;;;47.40;23.90;;;;;;;;;;4878170;29;32227;-67
2021/11/02 03:09:34;;;;;;;47.30;24.92;;;;;;;;;;4877724;29;32132;-65
2021/11/02 03:12:04;;;;;;;44.17;22.00;;;;;;;;;;4878249;29;32215;-66
2021/11/02 03:14:48;;;;;;;43.25;20.25;;;;;;;;;;4885264;29;34759;-66
2021/11/02 03:17:20;;;;;;;40.47;21.15;;;;;;;;;;4887597;29;32217;-67
2021/11/02 03:50:25;;;;;;;49.58;20.88;;;;;;;;;;4885874;29;34765;-69
2021/11/02 03:55:38;;;;;;;47.20;21.05;;;;;;;;;;4886412;29;32248;-65
2021/11/02 03:58:13;;;;;;;44.58;19.90;;;;;;;;;;4886597;29;32533;-66
2021/11/02 04:01:26;;;;;;;44.13;20.50;;;;;;;;;;4887290;29;32399;-67
2021/11/02 04:28:56;;;;;;;57.20;26.00;;;;;;;;;;4877327;29;34193;-66
2021/11/02 05:53:10;;;;;;;28.27;14.40;;;;;;;;;;4885671;29;35359;-65
2021/11/02 05:56:24;;;;;;;25.58;13.90;;;;;;;;;;4868443;29;32463;-67
2021/11/02 06:01:07;;;;;;;28.63;14.63;;;;;;;;;;4876065;29;32401;-65
2021/11/02 06:09:24;;;;;;;35.35;15.98;;;;;;;;;;4805787;29;32654;-64
2021/11/02 06:27:42;;;;;;;35.60;16.65;;;;;;;;;;4866596;29;32384;-65
2021/11/02 06:29:14;;;;;;;;;;;;;;;;;;4867005;29;32362;-64
2021/11/02 06:31:50;;;;;;;29.85;14.88;;;;;;;;;;4866407;29;34571;-65
2021/11/02 07:18:39;;;;;;;19.52;11.13;;;;;;;;;;4869447;29;32426;-66
2021/11/02 07:21:12;;;;;;;18.15;10.05;;;;;;;;;;4868998;29;34027;-67
2021/11/02 07:23:56;;;;;;;18.42;9.63;;;;;;;;;;4869074;29;32310;-66
2021/11/02 07:26:51;;;;;;;18.02;10.88;;;;;;;;;;4869140;29;32163;-65
2021/11/02 08:45:32;;;;;;;11.60;7.30;;;;;;;;;;4868291;29;32390;-63
2021/11/02 08:48:02;;;;;;;10.38;6.88;;;;;;;;;;4868228;29;34010;-64
2021/11/02 08:50:37;;;;;;;12.25;6.70;;;;;;;;;;4868165;29;32368;-65
2021/11/02 08:53:06;;;;;;;15.68;7.07;;;;;;;;;;4862470;29;32893;-68
2021/11/02 08:55:34;;;;;;;12.57;6.85;;;;;;;;;;4858015;29;32487;-68
2021/11/02 08:58:02;;;;;;;16.15;7.53;;;;;;;;;;4875373;29;32415;-67
2021/11/02 09:00:29;;;;;;;12.68;7.10;;;;;;;;;;4875755;29;34881;-67
2021/11/02 09:03:07;;;;;;;13.75;7.20;;;;;;;;;;4875062;29;32529;-68
2021/11/02 09:05:36;;;;;;;12.20;6.82;;;;;;;;;;4867082;29;32380;-66
2021/11/02 09:08:06;;;;;;;12.10;6.93;;;;;;;;;;4871498;29;32467;-67
2021/11/02 09:10:33;;;;;;;13.95;7.43;;;;;;;;;;4875652;29;37882;-65
2021/11/02 09:13:00;;;;;;;14.85;6.80;;;;;;;;;;4875428;29;32456;-66
2021/11/02 09:15:28;;;;;;;11.07;6.20;;;;;;;;;;4874852;29;32404;-64
2021/11/02 09:17:57;;;;;;;11.00;6.18;;;;;;;;;;4874760;29;32426;-68
2021/11/02 09:20:26;;;;;;;12.43;6.65;;;;;;;;;;4874566;29;32760;-65
2021/11/02 09:22:52;;;;;;;10.35;6.53;;;;;;;;;;4874298;29;34654;-65
2021/11/02 09:25:20;;;;;;;12.68;6.78;;;;;;;;;;4874001;29;32522;-65
2021/11/02 09:27:49;;;;;;;15.30;7.00;;;;;;;;;;4874453;29;32388;-66
2021/11/02 09:30:18;;;;;;;16.15;7.80;;;;;;;;;;4875277;29;32397;-65
2021/11/02 09:32:47;;;;;;;14.30;7.28;;;;;;;;;;4873435;29;34509;-64
2021/11/02 09:35:17;;;;;;;13.50;7.25;;;;;;;;;;4874720;29;32424;-64
2021/11/02 09:38:14;;;;;;;11.77;6.25;;;;;;;;;;4874455;29;32410;-65
2021/11/02 09:41:50;;;;;;;11.52;6.25;;;;;;;;;;4874262;29;32606;-65
2021/11/02 09:45:12;;;;;;;12.65;5.90;;;;;;;;;;4874925;29;32413;-66
2021/11/02 09:48:35;;;;;;;9.50;5.85;;;;;;;;;;4874639;29;34064;-65
2021/11/02 09:51:52;;;;;;;9.80;6.05;;;;;;;;;;4875348;29;32634;-67
2021/11/02 09:55:14;;;;;;;11.43;5.95;;;;;;;;;;4872853;29;32750;-65
2021/11/02 09:58:21;;;;;;;11.95;5.45;;;;;;;;;;4845025;29;32422;-65
2021/11/02 10:01:29;;;;;;;9.40;5.68;;;;;;;;;;4871747;29;35196;-67
2021/11/02 10:04:49;;;;;;;12.60;5.28;;;;;;;;;;4875265;29;32278;-65
2021/11/02 10:07:45;;;;;;;8.30;5.43;;;;;;;;;;4873112;29;32422;-65
2021/11/02 10:10:16;;;;;;;14.23;6.07;;;;;;;;;;4869717;29;32397;-64
2021/11/02 10:12:58;;;;;;;13.32;6.53;;;;;;;;;;4874296;29;32913;-65
2021/11/02 10:15:43;;;;;;;12.43;6.45;;;;;;;;;;4875148;29;32376;-67
2021/11/02 10:18:49;;;;;;;11.98;5.40;;;;;;;;;;4874663;29;32436;-66
2021/11/02 10:21:57;;;;;;;10.95;5.45;;;;;;;;;;4844124;29;32448;-67
2021/11/02 10:25:00;;;;;;;8.85;4.78;;;;;;;;;;4861162;29;32556;-67
2021/11/02 10:27:54;;;;;;;11.45;5.65;;;;;;;;;;4874775;29;35177;-66
2021/11/02 10:30:37;;;;;;;11.13;5.40;;;;;;;;;;4872152;29;32383;-67
2021/11/02 10:33:18;;;;;;;12.48;6.50;;;;;;;;;;4872160;29;32384;-65
2021/11/02 10:36:01;;;;;;;10.13;5.60;;;;;;;;;;4875638;29;32321;-63
2021/11/02 10:38:39;;;;;;;11.50;6.03;;;;;;;;;;4878579;29;31955;-65
2021/11/02 10:41:15;;;;;;;10.27;7.20;;;;;;;;;;4876809;29;32768;-67
2021/11/02 10:44:18;;;;;;;11.57;6.15;;;;;;;;;;4880588;29;32499;-65
2021/11/02 10:47:04;;;;;;;9.38;5.05;;;;;;;;;;4841523;29;32501;-66
2021/11/02 10:49:59;;;;;;;9.23;5.70;;;;;;;;;;4879981;29;32332;-65
2021/11/02 10:52:27;;;;;;;9.40;5.70;;;;;;;;;;4876078;29;35230;-64
2021/11/02 10:55:07;;;;;;;7.18;4.53;;;;;;;;;;4874783;29;32671;-67
2021/11/02 10:57:48;;;;;;;7.75;4.40;;;;;;;;;;4875846;29;32406;-69
2021/11/02 11:00:17;;;;;;;7.25;4.80;;;;;;;;;;4876822;29;32501;-65
2021/11/02 11:02:46;;;;;;;7.05;4.45;;;;;;;;;;4871293;29;31880;-65
2021/11/02 11:05:12;;;;;;;9.05;4.78;;;;;;;;;;4871919;29;32530;-64
2021/11/02 11:07:41;;;;;;;7.95;4.45;;;;;;;;;;4877550;29;32498;-64
2021/11/02 11:10:10;;;;;;;6.45;4.20;;;;;;;;;;4876062;29;32407;-67
2021/11/02 11:12:39;;;;;;;7.88;5.88;;;;;;;;;;4877405;29;32435;-67
2021/11/02 11:15:07;;;;;;;6.90;4.63;;;;;;;;;;4877028;29;35452;-65
2021/11/02 11:17:36;;;;;;;7.47;4.68;;;;;;;;;;4877414;29;32511;-65
2021/11/02 11:20:13;;;;;;;6.43;4.13;;;;;;;;;;4874775;29;32664;-65
2021/11/02 11:22:42;;;;;;;6.93;4.70;;;;;;;;;;4878134;29;32435;-64
2021/11/02 11:25:13;;;;;;;7.57;4.82;;;;;;;;;;4877324;29;34166;-65
2021/11/02 11:27:48;;;;;;;6.57;4.57;;;;;;;;;;4876881;29;32641;-65
2021/11/02 11:30:17;;;;;;;8.25;5.78;;;;;;;;;;4875822;29;32504;-65
2021/11/02 11:32:47;;;;;;;7.68;4.68;;;;;;;;;;4876709;29;32473;-65
2021/11/02 11:35:15;;;;;;;7.65;5.07;;;;;;;;;;4879446;29;32259;-65
2021/11/02 11:37:44;;;;;;;7.15;4.97;;;;;;;;;;4875808;29;34065;-67
2021/11/02 11:40:13;;;;;;;7.65;4.95;;;;;;;;;;4876571;29;32602;-67
2021/11/02 11:42:40;;;;;;;7.50;4.72;;;;;;;;;;4879662;29;32408;-66
2021/11/02 11:45:11;;;;;;;7.28;4.70;;;;;;;;;;4877889;29;32602;-64
2021/11/02 11:47:38;;;;;;;9.85;5.30;;;;;;;;;;4875287;29;32500;-65
2021/11/02 11:50:22;;;;;;;7.07;4.65;;;;;;;;;;4875765;29;32394;-65
2021/11/02 11:52:51;;;;;;;7.28;4.85;;;;;;;;;;4878156;29;32375;-65
2021/11/02 11:55:23;;;;;;;8.77;5.00;;;;;;;;;;4877183;29;32426;-66
2021/11/02 11:58:11;;;;;;;7.63;4.80;;;;;;;;;;4874969;29;32672;-65
2021/11/02 12:00:41;;;;;;;8.00;5.30;;;;;;;;;;4875320;29;36028;-67
2021/11/02 12:03:40;;;;;;;9.57;5.65;;;;;;;;;;4875042;29;32463;-66
2021/11/02 12:06:18;;;;;;;9.52;5.43;;;;;;;;;;4870904;29;32483;-67
2021/11/02 12:08:51;;;;;;;9.00;6.05;;;;;;;;;;4876759;29;32528;-65
2021/11/02 12:11:19;;;;;;;;;;;;;;;;;;4878382;29;32403;-66
2021/11/02 12:13:49;;;;;;;8.50;5.60;;;;;;;;;;4870344;29;32410;-68
2021/11/02 12:16:22;;;;;;;8.25;5.57;;;;;;;;;;4876106;29;32632;-66
2021/11/02 12:18:58;;;;;;;8.18;5.63;;;;;;;;;;4858877;29;32470;-66
2021/11/02 12:21:31;;;;;;;9.35;5.68;;;;;;;;;;4877153;29;32507;-66
2021/11/02 12:24:02;;;;;;;10.43;6.13;;;;;;;;;;4875658;29;34237;-65
2021/11/02 12:26:43;;;;;;;9.15;5.90;;;;;;;;;;4876586;29;32406;-66
2021/11/02 12:29:17;;;;;;;8.10;5.50;;;;;;;;;;4876333;29;32414;-65
2021/11/02 12:31:45;;;;;;;9.57;5.32;;;;;;;;;;4875344;29;32388;-67
2021/11/02 12:34:15;;;;;;;9.10;6.47;;;;;;;;;;4875962;29;35604;-67
2021/11/02 12:36:50;;;;;;;11.52;5.43;;;;;;;;;;4876269;29;32585;-64
2021/11/02 12:39:20;;;;;;;11.75;6.43;;;;;;;;;;4875791;29;33081;-64
2021/11/02 12:41:50;;;;;;;11.02;6.43;;;;;;;;;;4876497;29;32349;-66
2021/11/02 12:44:22;;;;;;;10.15;6.05;;;;;;;;;;4875849;29;32416;-66
2021/11/02 12:46:49;;;;;;;10.20;5.53;;;;;;;;;;4875883;29;36391;-64
2021/11/02 12:49:27;;;;;;;8.88;5.63;;;;;;;;;;4876196;29;32889;-65
2021/11/02 12:52:04;;;;;;;11.70;6.72;;;;;;;;;;4876610;29;32596;-64
2021/11/02 12:54:31;;;;;;;10.38;6.07;;;;;;;;;;4874256;29;32487;-65
2021/11/02 12:57:05;;;;;;;10.13;5.43;;;;;;;;;;4874520;29;35569;-66
2021/11/02 12:59:40;;;;;;;10.00;6.10;;;;;;;;;;4873834;29;32352;-67
2021/11/02 13:02:20;;;;;;;10.57;5.50;;;;;;;;;;4874352;29;32519;-66
2021/11/02 13:04:55;;;;;;;10.82;6.03;;;;;;;;;;4874412;29;32501;-65
2021/11/02 13:07:24;;;;;;;10.13;5.78;;;;;;;;;;4875262;29;32361;-67
2021/11/02 13:09:52;;;;;;;10.60;6.07;;;;;;;;;;4874821;29;35019;-67
2021/11/02 13:12:24;;;;;;;11.52;6.40;;;;;;;;;;4875190;29;32353;-64
2021/11/02 13:14:52;;;;;;;9.55;5.55;;;;;;;;;;4868302;29;32623;-64
2021/11/02 13:17:24;;;;;;;9.52;5.90;;;;;;;;;;4875596;29;32312;-65
2021/11/02 13:19:56;;;;;;;11.40;6.18;;;;;;;;;;4875289;29;34029;-64
2021/11/02 13:22:28;;;;;;;10.50;5.65;;;;;;;;;;4871184;29;32366;-65
2021/11/02 13:25:00;;;;;;;12.00;6.53;;;;;;;;;;4875584;29;32459;-65
2021/11/02 13:27:35;;;;;;;10.65;5.90;;;;;;;;;;4875820;29;32541;-68
2021/11/02 13:30:34;;;;;;;11.07;7.28;;;;;;;;;;4876097;29;32559;-65
2021/11/02 13:33:09;;;;;;;12.15;6.10;;;;;;;;;;4875743;29;35387;-67
2021/11/02 13:35:48;;;;;;;11.23;6.35;;;;;;;;;;4874708;29;32550;-68
2021/11/02 13:38:35;;;;;;;11.82;6.53;;;;;;;;;;4874989;29;32342;-67
2021/11/02 13:41:16;;;;;;;12.63;6.25;;;;;;;;;;4875847;29;32481;-64
2021/11/02 13:43:45;;;;;;;11.18;6.22;;;;;;;;;;4874968;29;34156;-64
2021/11/02 13:46:14;;;;;;;11.20;6.75;;;;;;;;;;4875105;29;32381;-67
2021/11/02 13:48:41;;;;;;;10.57;6.25;;;;;;;;;;4875111;29;32406;-64
2021/11/02 13:51:11;;;;;;;9.80;5.88;;;;;;;;;;4874982;29;32457;-67
2021/11/02 13:53:40;;;;;;;13.45;6.43;;;;;;;;;;4858638;29;32398;-67
2021/11/02 13:56:08;;;;;;;12.35;7.13;;;;;;;;;;4874596;29;34720;-67
2021/11/02 13:58:39;;;;;;;10.40;6.22;;;;;;;;;;4874481;29;32678;-64
2021/11/02 14:01:08;;;;;;;11.93;6.78;;;;;;;;;;4875149;29;32655;-64
2021/11/02 14:03:44;;;;;;;12.85;7.13;;;;;;;;;;4871683;29;32390;-65
2021/11/02 14:06:12;;;;;;;11.75;6.57;;;;;;;;;;4875185;29;35063;-65
2021/11/02 14:08:43;;;;;;;13.32;7.55;;;;;;;;;;4876059;29;32828;-65
2021/11/02 14:11:24;;;;;;;15.02;6.68;;;;;;;;;;4876969;29;32895;-65
2021/11/02 14:13:53;;;;;;;10.60;6.75;;;;;;;;;;4876265;29;32976;-66
2021/11/02 14:16:37;;;;;;;12.20;6.60;;;;;;;;;;4877437;29;32686;-64
2021/11/02 14:19:35;;;;;;;11.77;7.00;;;;;;;;;;4877027;29;35711;-65
2021/11/02 14:22:05;;;;;;;13.27;7.18;;;;;;;;;;4877702;29;32580;-67
2021/11/02 14:24:35;;;;;;;15.70;8.18;;;;;;;;;;4867059;29;32982;-65
2021/11/02 14:27:03;;;;;;;14.23;7.70;;;;;;;;;;4875526;29;32304;-66
2021/11/02 14:29:51;;;;;;;14.35;8.40;;;;;;;;;;4858174;29;34555;-66
2021/11/02 14:32:52;;;;;;;15.82;8.82;;;;;;;;;;4878433;29;32829;-65
2021/11/02 14:35:46;;;;;;;14.13;7.82;;;;;;;;;;4878269;29;32731;-68
2021/11/02 14:38:14;;;;;;;20.15;8.43;;;;;;;;;;4878333;29;32595;-67
2021/11/02 14:40:43;;;;;;;17.02;8.07;;;;;;;;;;4878504;29;33087;-65
2021/11/02 14:43:28;;;;;;;15.68;8.13;;;;;;;;;;4876679;29;34073;-65
2021/11/02 14:45:58;;;;;;;14.43;7.40;;;;;;;;;;4877729;29;32421;-66
2021/11/02 14:48:38;;;;;;;15.57;7.25;;;;;;;;;;4877403;29;32491;-65
2021/11/02 14:51:06;;;;;;;14.75;8.00;;;;;;;;;;4876820;29;32399;-65
2021/11/02 14:53:35;;;;;;;12.57;7.25;;;;;;;;;;4877290;29;34752;-65
2021/11/02 14:56:05;;;;;;;13.13;7.35;;;;;;;;;;4878304;29;32432;-65
2021/11/02 14:58:53;;;;;;;12.55;7.22;;;;;;;;;;4877659;29;32360;-65
2021/11/02 15:01:29;;;;;;;11.10;7.05;;;;;;;;;;4877836;29;32516;-65
2021/11/02 15:04:04;;;;;;;13.60;7.43;;;;;;;;;;4879335;29;32587;-68
2021/11/02 15:06:34;;;;;;;16.88;7.50;;;;;;;;;;4877326;29;34709;-68
2021/11/02 15:09:04;;;;;;;17.42;7.47;;;;;;;;;;4875442;29;32989;-66
2021/11/02 15:11:33;;;;;;;13.43;7.05;;;;;;;;;;4876189;29;32477;-68
2021/11/02 15:14:05;;;;;;;13.05;6.72;;;;;;;;;;4875719;29;32489;-66
2021/11/02 15:16:32;;;;;;;10.88;6.82;;;;;;;;;;4878175;29;34993;-68
2021/11/02 15:19:01;;;;;;;12.45;6.63;;;;;;;;;;4879036;29;32285;-66
2021/11/02 15:21:31;;;;;;;12.35;7.20;;;;;;;;;;4877416;29;32526;-63
2021/11/02 15:24:06;;;;;;;12.27;6.13;;;;;;;;;;4876988;29;32504;-65
2021/11/02 15:26:45;;;;;;;11.73;6.50;;;;;;;;;;4871895;29;32396;-67
2021/11/02 15:29:11;;;;;;;13.68;6.60;;;;;;;;;;4877191;29;34542;-65
2021/11/02 15:31:39;;;;;;;13.77;6.57;;;;;;;;;;4875394;29;33142;-65
2021/11/02 15:34:13;;;;;;;13.93;6.95;;;;;;;;;;4869888;29;33162;-64
2021/11/02 15:36:40;;;;;;;12.57;7.03;;;;;;;;;;4877375;29;32534;-66
2021/11/02 15:39:08;;;;;;;9.88;6.10;;;;;;;;;;4877601;29;34211;-64
2021/11/02 15:41:38;;;;;;;10.98;6.03;;;;;;;;;;4876703;29;32611;-66
2021/11/02 15:44:06;;;;;;;13.98;6.10;;;;;;;;;;4876125;29;33041;-67
2021/11/02 15:46:38;;;;;;;11.32;6.60;;;;;;;;;;4877159;29;32352;-63
2021/11/02 15:49:07;;;;;;;10.55;6.38;;;;;;;;;;4878032;29;32478;-64
2021/11/02 15:51:37;;;;;;;13.05;6.18;;;;;;;;;;4881377;29;34027;-67
2021/11/02 15:54:12;;;;;;;10.40;6.05;;;;;;;;;;4879307;29;32544;-64
2021/11/02 15:56:43;;;;;;;9.27;5.68;;;;;;;;;;4876321;29;32717;-64
2021/11/02 15:59:10;;;;;;;11.35;5.80;;;;;;;;;;4878769;29;32349;-67
2021/11/02 16:01:50;;;;;;;9.98;6.10;;;;;;;;;;4878968;29;34651;-64
2021/11/02 16:04:20;;;;;;;12.65;7.28;;;;;;;;;;4860750;29;32502;-66
2021/11/02 16:07:14;;;;;;;11.25;5.88;;;;;;;;;;4877812;29;32594;-69
2021/11/02 16:09:53;;;;;;;12.73;6.75;;;;;;;;;;4878792;29;32391;-64
2021/11/02 16:12:31;;;;;;;10.23;5.63;;;;;;;;;;4877992;29;32996;-65
2021/11/02 16:15:02;;;;;;;10.65;5.60;;;;;;;;;;4877669;29;34528;-65
2021/11/02 16:17:30;;;;;;;9.48;5.68;;;;;;;;;;4877570;29;33063;-65
2021/11/02 16:19:58;;;;;;;11.18;6.28;;;;;;;;;;4877944;29;32276;-65
2021/11/02 16:22:26;;;;;;;10.80;5.32;;;;;;;;;;4875445;29;32328;-65
2021/11/02 16:34:01;;;;;;;9.90;5.47;;;;;;;;;;4866133;29;32521;-68
2021/11/02 16:36:39;;;;;;;11.10;6.15;;;;;;;;;;4876782;29;32595;-66
2021/11/02 16:39:20;;;;;;;9.25;5.80;;;;;;;;;;4873330;29;33224;-65
2021/11/02 16:41:51;;;;;;;10.50;6.18;;;;;;;;;;4865045;29;35735;-66
2021/11/02 16:44:28;;;;;;;8.40;5.47;;;;;;;;;;4870304;29;32961;-63
2021/11/02 16:47:06;;;;;;;9.52;5.70;;;;;;;;;;4876262;29;32668;-65
2021/11/02 16:49:36;;;;;;;9.18;6.70;;;;;;;;;;4877415;29;32576;-69
2021/11/02 16:52:07;;;;;;;8.98;5.95;;;;;;;;;;4875551;29;34757;-65
2021/11/02 16:54:36;;;;;;;9.05;5.47;;;;;;;;;;4842057;29;33286;-67
2021/11/02 16:57:08;;;;;;;10.63;6.07;;;;;;;;;;4873473;29;32477;-64
2021/11/02 17:00:03;;;;;;;9.90;6.90;;;;;;;;;;4874135;29;32805;-66
2021/11/02 17:06:11;;;;;;;11.48;5.90;;;;;;;;;;4874019;29;34080;-64
2021/11/02 17:08:51;;;;;;;11.80;5.93;;;;;;;;;;4875834;29;32391;-67
2021/11/02 17:11:23;;;;;;;12.57;6.55;;;;;;;;;;4873298;29;32814;-64
2021/11/02 17:13:51;;;;;;;10.77;6.05;;;;;;;;;;4872956;29;32981;-66
2021/11/02 17:16:27;;;;;;;11.88;6.38;;;;;;;;;;4875071;29;35679;-66
2021/11/02 17:19:01;;;;;;;11.43;7.88;;;;;;;;;;4875511;29;32561;-64
2021/11/02 17:21:30;;;;;;;;;;;;;;;;;;4876252;29;32629;-66
2021/11/02 17:24:00;;;;;;;14.65;7.03;;;;;;;;;;4872146;29;32594;-67
2021/11/02 17:26:30;;;;;;;10.93;6.07;;;;;;;;;;4872324;29;32290;-65
2021/11/02 17:28:58;;;;;;;10.15;6.55;;;;;;;;;;4873148;29;34305;-67
2021/11/02 17:31:31;;;;;;;10.57;6.15;;;;;;;;;;4872022;29;32488;-68
2021/11/02 17:33:58;;;;;;;11.95;7.55;;;;;;;;;;4874650;29;32371;-65
2021/11/02 17:36:28;;;;;;;13.55;6.63;;;;;;;;;;4873960;29;32356;-66
2021/11/02 17:38:56;;;;;;;11.60;8.20;;;;;;;;;;4874774;29;35055;-66
2021/11/02 17:41:24;;;;;;;11.25;6.57;;;;;;;;;;4858679;29;32647;-65
2021/11/02 17:43:52;;;;;;;;;;;;;;;;;;4873410;29;32517;-66
2021/11/02 17:46:20;;;;;;;10.35;6.32;;;;;;;;;;4867331;29;32400;-66
2021/11/02 17:48:47;;;;;;;12.68;6.60;;;;;;;;;;4868980;29;32342;-65
2021/11/02 17:51:15;;;;;;;11.13;6.93;;;;;;;;;;4872887;29;33929;-67
2021/11/02 17:53:46;;;;;;;10.27;6.60;;;;;;;;;;4863578;29;32573;-66
2021/11/02 17:56:13;;;;;;;15.07;7.22;;;;;;;;;;4857435;29;32465;-67
2021/11/02 17:58:42;;;;;;;11.55;6.45;;;;;;;;;;4875005;29;32490;-67
2021/11/02 18:01:13;;;;;;;11.43;6.15;;;;;;;;;;4874414;29;34133;-65
2021/11/02 18:03:42;;;;;;;10.10;5.68;;;;;;;;;;4852949;29;32622;-66
2021/11/02 18:06:11;;;;;;;10.65;5.88;;;;;;;;;;4853223;29;32366;-67
2021/11/02 18:08:40;;;;;;;12.40;7.10;;;;;;;;;;4866748;29;32337;-69
2021/11/02 18:11:09;;;;;;;12.35;6.25;;;;;;;;;;4865393;29;32372;-67
2021/11/02 18:13:37;;;;;;;7.40;5.13;;;;;;;;;;4866803;29;34059;-67
2021/11/02 18:16:08;;;;;;;10.30;5.97;;;;;;;;;;4866636;29;32422;-66
2021/11/02 18:18:38;;;;;;;15.68;6.00;;;;;;;;;;4867156;29;32289;-66
2021/11/02 18:21:08;;;;;;;10.10;5.93;;;;;;;;;;4867067;29;32413;-65
2021/11/02 18:23:38;;;;;;;9.80;5.35;;;;;;;;;;4867183;29;34132;-68
2021/11/02 18:26:07;;;;;;;10.45;5.85;;;;;;;;;;4867085;29;32504;-63
2021/11/02 18:28:33;;;;;;;11.55;6.72;;;;;;;;;;4866721;29;32339;-68
2021/11/02 18:31:01;;;;;;;10.85;6.07;;;;;;;;;;4865955;29;32261;-65
2021/11/02 18:33:28;;;;;;;9.55;5.53;;;;;;;;;;4866946;29;32372;-65
2021/11/02 18:35:56;;;;;;;10.80;6.13;;;;;;;;;;4866571;29;34605;-66
2021/11/02 18:38:26;;;;;;;11.63;6.22;;;;;;;;;;4866634;29;32312;-66
2021/11/02 18:40:54;;;;;;;9.63;5.65;;;;;;;;;;4866584;29;32182;-66
2021/11/02 18:43:25;;;;;;;11.13;6.15;;;;;;;;;;4866076;29;33769;-66
2021/11/02 18:45:55;;;;;;;13.02;5.60;;;;;;;;;;4866453;29;35154;-66
2021/11/02 18:48:23;;;;;;;10.15;5.30;;;;;;;;;;4867356;29;32166;-67
2021/11/02 18:50:50;;;;;;;10.32;5.65;;;;;;;;;;4866498;29;32375;-66
2021/11/02 18:53:16;;;;;;;;;;;;;;;;;;4866808;29;32446;-64
2021/11/02 18:55:45;;;;;;;10.00;5.72;;;;;;;;;;4864786;29;32407;-68
2021/11/02 18:58:12;;;;;;;9.52;5.43;;;;;;;;;;4868147;29;34035;-64
2021/11/02 19:00:40;;;;;;;9.88;5.95;;;;;;;;;;4869516;29;32406;-65
2021/11/02 19:03:07;;;;;;;10.68;6.40;;;;;;;;;;4869539;29;32259;-66
2021/11/02 19:05:36;;;;;;;9.43;5.63;;;;;;;;;;4869615;29;32226;-66
2021/11/02 19:08:03;;;;;;;10.57;5.80;;;;;;;;;;4868531;29;33937;-65
2021/11/02 19:10:30;;;;;;;10.85;7.90;;;;;;;;;;4869156;29;32397;-65
2021/11/02 19:12:57;;;;;;;9.40;5.70;;;;;;;;;;4869136;29;32286;-65
2021/11/02 19:15:23;;;;;;;10.45;5.88;;;;;;;;;;4869077;29;32233;-64
2021/11/02 19:17:51;;;;;;;8.88;5.50;;;;;;;;;;4869220;29;32150;-64
2021/11/02 19:20:20;;;;;;;9.75;5.38;;;;;;;;;;4869002;29;34812;-64
2021/11/02 19:22:47;;;;;;;9.55;6.35;;;;;;;;;;4869194;29;32223;-66
2021/11/02 19:25:14;;;;;;;11.45;5.63;;;;;;;;;;4887886;29;32308;-68
2021/11/02 19:27:41;;;;;;;12.20;6.18;;;;;;;;;;4878768;29;32270;-67
2021/11/02 19:30:08;;;;;;;9.88;5.80;;;;;;;;;;4868968;29;35376;-66
2021/11/02 19:32:35;;;;;;;12.30;6.63;;;;;;;;;;4869052;29;32641;-66
2021/11/02 19:35:05;;;;;;;11.27;5.90;;;;;;;;;;4868453;29;32316;-68
2021/11/02 19:37:32;;;;;;;12.15;6.20;;;;;;;;;;4869018;29;32282;-67
2021/11/02 19:39:58;;;;;;;10.30;5.80;;;;;;;;;;4869237;29;32249;-65
2021/11/02 19:42:25;;;;;;;11.77;6.05;;;;;;;;;;4868941;29;35008;-66
2021/11/02 19:44:52;;;;;;;11.38;7.03;;;;;;;;;;4868886;29;32377;-63
2021/11/02 19:47:19;;;;;;;13.20;8.07;;;;;;;;;;4873226;29;32217;-65
2021/11/02 19:49:46;;;;;;;11.48;6.28;;;;;;;;;;4887881;29;32284;-65
2021/11/02 19:52:14;;;;;;;9.55;5.82;;;;;;;;;;4887991;29;35174;-65
2021/11/02 19:54:41;;;;;;;10.23;6.18;;;;;;;;;;4887051;29;32445;-65
2021/11/02 19:57:08;;;;;;;10.15;6.25;;;;;;;;;;4888035;29;32272;-63
2021/11/02 19:59:35;;;;;;;11.27;6.53;;;;;;;;;;4887950;29;32497;-68
2021/11/02 20:02:04;;;;;;;12.55;6.28;;;;;;;;;;4888068;29;32413;-65
2021/11/02 20:04:31;;;;;;;9.15;6.38;;;;;;;;;;4887681;29;34191;-64